Time;durP1;ratioP1;P1;durP2;ratioP2;P2;SDS_P1;SDS_P2;PMS_P1;PMS_P2;Temp;Humidity;BMP_temperature;BMP_pressure;BME280_temperature;BME280_humidity;BME280_pressure;Samples;Min_cycle;Max_cycle;Signal;HPM_P1;HPM_P2
2022/12/05 00:00:13;;;;;;;30.45;17.52;;;4.70;85.50;;;;;;5073695;28;20016;-28
2022/12/05 00:02:39;;;;;;;29.17;17.15;;;4.70;85.60;;;;;;5073304;28;20040;-31
2022/12/05 00:05:04;;;;;;;30.35;17.83;;;4.80;85.60;;;;;;5073231;28;20017;-30
2022/12/05 00:07:30;;;;;;;32.10;18.85;;;4.80;85.70;;;;;;5073430;28;20032;-31
2022/12/05 00:09:56;;;;;;;35.55;19.20;;;4.80;85.60;;;;;;5073201;28;20500;-28
2022/12/05 00:12:21;;;;;;;37.67;19.88;;;4.80;85.60;;;;;;5073468;28;20039;-29
2022/12/05 00:14:47;;;;;;;35.55;19.38;;;4.70;85.70;;;;;;5073254;28;20472;-27
2022/12/05 00:17:12;;;;;;;36.30;20.02;;;4.70;85.70;;;;;;5073270;28;20024;-32
2022/12/05 00:19:38;;;;;;;32.45;17.85;;;4.70;85.80;;;;;;5073347;28;20017;-29
2022/12/05 00:22:04;;;;;;;33.00;17.63;;;4.70;85.90;;;;;;5072836;28;20032;-31
2022/12/05 00:24:29;;;;;;;35.10;19.35;;;4.70;86.10;;;;;;5073023;28;20392;-34
2022/12/05 00:26:55;;;;;;;33.55;17.67;;;4.70;86.10;;;;;;5072948;28;20107;-27
2022/12/05 00:29:20;;;;;;;32.60;18.35;;;4.70;86.10;;;;;;5072974;28;20025;-28
2022/12/05 00:31:46;;;;;;;36.67;19.98;;;4.70;86.10;;;;;;5054729;28;20369;-27
2022/12/05 00:34:12;;;;;;;35.78;19.58;;;4.80;86.20;;;;;;5073022;28;20099;-27
2022/12/05 00:36:37;;;;;;;37.65;19.38;;;4.70;86.10;;;;;;5073125;28;20037;-29
2022/12/05 00:39:07;;;;;;;33.53;18.95;;;4.70;86.20;;;;;;5054660;28;20523;-26
2022/12/05 00:41:32;;;;;;;32.55;18.08;;;4.70;86.30;;;;;;5072607;28;20025;-29
2022/12/05 00:43:59;;;;;;;32.20;17.98;;;4.80;86.50;;;;;;5072589;28;20025;-29
2022/12/05 00:46:28;;;;;;;31.20;17.23;;;4.80;86.40;;;;;;5072569;28;20024;-28
2022/12/05 00:48:55;;;;;;;32.45;17.65;;;4.80;86.50;;;;;;5072499;28;20051;-27
2022/12/05 00:51:26;;;;;;;31.50;17.10;;;4.80;86.50;;;;;;5072391;28;20033;-26
2022/12/05 00:53:51;;;;;;;32.08;17.80;;;4.80;86.50;;;;;;5072540;28;20504;-28
2022/12/05 00:56:22;;;;;;;33.70;19.20;;;4.80;86.40;;;;;;5072606;28;20115;-28
2022/12/05 00:58:50;;;;;;;37.17;19.50;;;4.80;86.40;;;;;;5072331;28;20521;-32
2022/12/05 01:01:22;;;;;;;36.47;20.00;;;4.80;86.40;;;;;;5072189;28;20503;-27
2022/12/05 01:03:51;;;;;;;35.65;19.10;;;4.80;86.40;;;;;;5072006;28;20025;-26
2022/12/05 01:06:17;;;;;;;36.17;19.85;;;4.80;86.40;;;;;;5072100;28;20020;-27
2022/12/05 01:08:43;;;;;;;36.55;20.02;;;4.80;86.50;;;;;;5072241;28;20024;-27
2022/12/05 01:11:10;;;;;;;34.03;19.15;;;4.80;86.50;;;;;;5072247;28;20021;-29
2022/12/05 01:13:37;;;;;;;35.53;20.17;;;4.80;86.60;;;;;;5071949;28;20029;-26
2022/12/05 01:16:03;;;;;;;35.63;19.52;;;4.80;86.80;;;;;;5071821;28;20563;-27
2022/12/05 01:18:29;;;;;;;39.15;20.00;;;4.80;86.80;;;;;;5072390;28;20438;-28
2022/12/05 01:20:55;;;;;;;37.63;18.15;;;4.80;86.80;;;;;;5072203;28;20059;-26
2022/12/05 01:23:20;;;;;;;34.42;18.42;;;4.80;86.80;;;;;;5072610;28;20509;-27
2022/12/05 01:25:49;;;;;;;34.33;18.27;;;4.80;86.80;;;;;;5072260;28;20044;-27
2022/12/05 01:28:15;;;;;;;31.15;16.73;;;4.80;86.90;;;;;;5072257;28;20100;-28
2022/12/05 01:30:44;;;;;;;32.97;18.77;;;4.80;86.80;;;;;;5072648;28;20376;-27
2022/12/05 01:33:10;;;;;;;31.65;17.13;;;4.90;86.90;;;;;;5072305;28;20033;-27
2022/12/05 01:35:38;;;;;;;33.90;18.13;;;4.90;86.80;;;;;;5072192;28;20024;-26
2022/12/05 01:38:05;;;;;;;34.38;18.83;;;4.90;86.80;;;;;;5054011;28;20044;-33
2022/12/05 01:40:31;;;;;;;33.03;18.50;;;4.90;86.80;;;;;;5072415;28;20037;-26
2022/12/05 01:42:57;;;;;;;34.95;19.92;;;4.90;86.80;;;;;;5072374;28;20480;-27
2022/12/05 01:45:38;;;;;;;33.95;18.70;;;4.90;86.90;;;;;;5071963;28;20017;-29
2022/12/05 01:48:13;;;;;;;33.42;18.55;;;4.90;86.90;;;;;;5072106;28;20468;-27
2022/12/05 01:50:39;;;;;;;32.20;17.75;;;4.90;87.00;;;;;;5072084;28;20020;-29
2022/12/05 01:53:05;;;;;;;29.77;16.95;;;4.90;87.00;;;;;;5071525;28;20039;-27
2022/12/05 01:55:33;;;;;;;30.05;16.48;;;4.90;87.00;;;;;;5072193;28;20036;-30
2022/12/05 01:58:00;;;;;;;35.35;18.83;;;4.90;87.00;;;;;;5072092;28;20071;-27
2022/12/05 02:00:26;;;;;;;28.25;16.80;;;4.90;87.10;;;;;;5071929;28;20020;-29
2022/12/05 02:02:57;;;;;;;30.92;16.88;;;4.90;87.10;;;;;;5071932;28;20024;-28
2022/12/05 02:05:32;;;;;;;30.65;16.45;;;4.90;87.10;;;;;;5053811;28;20024;-31
2022/12/05 02:08:00;;;;;;;28.35;16.92;;;4.90;87.10;;;;;;5071896;28;20028;-27
2022/12/05 02:10:29;;;;;;;29.45;17.13;;;5.00;87.10;;;;;;5053743;28;20035;-29
2022/12/05 02:13:03;;;;;;;28.50;15.05;;;5.00;87.10;;;;;;5071961;28;20423;-27
2022/12/05 02:15:36;;;;;;;;;;;5.00;87.10;;;;;;5072129;28;20060;-27
2022/12/05 02:18:40;;;;;;;27.20;15.07;;;5.00;87.10;;;;;;5071824;28;19999;-26
2022/12/05 02:21:30;;;;;;;24.15;13.90;;;5.00;87.10;;;;;;5071620;28;20097;-27
2022/12/05 02:24:19;;;;;;;28.63;15.65;;;5.00;87.10;;;;;;5071973;28;20067;-27
2022/12/05 02:27:00;;;;;;;30.38;16.88;;;5.00;87.10;;;;;;5058506;28;20128;-28
2022/12/05 02:29:52;;;;;;;29.20;16.88;;;5.00;87.20;;;;;;5071698;28;20458;-28
2022/12/05 02:32:45;;;;;;;30.15;16.83;;;5.00;87.20;;;;;;5071903;28;20123;-27
2022/12/05 02:35:15;;;;;;;29.52;16.45;;;4.90;87.30;;;;;;5071969;28;20384;-30
2022/12/05 02:37:54;;;;;;;29.40;16.40;;;5.00;87.50;;;;;;5071997;28;20021;-26
2022/12/05 02:40:30;;;;;;;28.92;16.95;;;5.00;87.50;;;;;;5071625;28;20020;-31
2022/12/05 02:43:02;;;;;;;28.70;15.65;;;5.00;87.50;;;;;;5071742;28;20036;-32
2022/12/05 02:45:32;;;;;;;28.17;16.55;;;5.00;87.50;;;;;;5071723;28;20024;-29
2022/12/05 02:47:59;;;;;;;30.10;17.02;;;5.00;87.50;;;;;;5071940;28;20119;-29
2022/12/05 02:50:31;;;;;;;27.98;16.02;;;5.00;87.50;;;;;;5071524;28;20020;-27
2022/12/05 02:53:02;;;;;;;25.17;14.60;;;5.10;87.50;;;;;;5071517;28;20020;-27
2022/12/05 02:55:31;;;;;;;29.13;15.10;;;5.10;87.60;;;;;;5071445;28;20024;-27
2022/12/05 02:58:03;;;;;;;29.73;15.05;;;5.10;87.60;;;;;;5053274;28;20013;-27
2022/12/05 03:00:28;;;;;;;24.03;13.37;;;5.20;87.60;;;;;;5071365;28;20459;-28
2022/12/05 03:02:58;;;;;;;24.67;14.25;;;5.20;87.60;;;;;;5071516;28;20103;-28
2022/12/05 03:05:39;;;;;;;24.27;14.73;;;5.20;87.50;;;;;;5074986;28;20020;-30
2022/12/05 03:08:10;;;;;;;26.17;15.30;;;5.20;87.50;;;;;;5075123;28;20069;-28
2022/12/05 03:10:37;;;;;;;26.60;14.30;;;5.20;87.40;;;;;;5075259;28;20428;-28
2022/12/05 03:13:13;;;;;;;28.35;14.90;;;5.30;87.50;;;;;;5074878;28;20019;-28
2022/12/05 03:15:46;;;;;;;23.80;14.20;;;5.20;87.50;;;;;;5074849;28;20505;-28
2022/12/05 03:18:20;;;;;;;28.70;16.75;;;5.20;87.50;;;;;;5075116;28;20029;-29
2022/12/05 03:20:51;;;;;;;27.25;14.50;;;5.30;87.60;;;;;;5074880;28;20033;-27
2022/12/05 03:23:36;;;;;;;27.42;14.70;;;5.30;87.50;;;;;;5075012;28;20021;-32
2022/12/05 03:26:13;;;;;;;23.95;14.00;;;5.30;87.50;;;;;;5074725;28;20028;-28
2022/12/05 03:29:10;;;;;;;24.65;14.05;;;5.30;87.60;;;;;;5075069;28;20044;-27
2022/12/05 03:31:43;;;;;;;23.30;14.23;;;5.30;87.50;;;;;;5074464;28;20028;-27
2022/12/05 03:34:17;;;;;;;24.40;13.50;;;5.30;87.50;;;;;;5074608;28;20029;-27
2022/12/05 03:36:48;;;;;;;27.33;15.25;;;5.30;87.60;;;;;;5074563;28;20036;-33
2022/12/05 03:39:42;;;;;;;25.90;14.48;;;5.30;87.60;;;;;;5074459;28;20028;-29
2022/12/05 03:42:13;;;;;;;25.50;14.32;;;5.30;87.60;;;;;;5069370;28;20080;-28
2022/12/05 03:44:53;;;;;;;26.45;14.93;;;5.30;87.70;;;;;;5074121;28;20020;-27
2022/12/05 03:47:26;;;;;;;26.50;14.77;;;5.30;87.70;;;;;;5074877;28;20522;-29
2022/12/05 03:49:58;;;;;;;25.92;15.00;;;5.30;87.70;;;;;;5074399;28;20017;-31
2022/12/05 03:52:32;;;;;;;24.27;13.85;;;5.30;87.70;;;;;;5074711;28;20094;-29
2022/12/05 03:55:05;;;;;;;21.00;13.45;;;5.30;87.70;;;;;;5074253;28;20036;-28
2022/12/05 03:57:42;;;;;;;23.40;13.45;;;5.30;87.70;;;;;;5074554;28;20421;-28
2022/12/05 04:00:09;;;;;;;25.13;14.85;;;5.40;87.80;;;;;;5074211;28;20029;-28
2022/12/05 04:03:04;;;;;;;25.33;15.10;;;5.40;87.70;;;;;;5074040;28;20032;-30
2022/12/05 04:05:49;;;;;;;25.95;15.00;;;5.40;87.70;;;;;;5073918;28;20489;-28
2022/12/05 04:08:42;;;;;;;23.20;14.02;;;5.40;87.70;;;;;;5073785;28;20021;-27
2022/12/05 04:11:15;;;;;;;21.73;13.80;;;5.40;87.70;;;;;;5074203;28;20411;-27
2022/12/05 04:13:47;;;;;;;22.70;13.88;;;5.40;87.70;;;;;;5073928;28;20032;-28
2022/12/05 04:22:28;;;;;;;27.80;14.98;;;5.40;87.60;;;;;;5050197;28;20090;-28
2022/12/05 04:27:47;;;;;;;27.02;15.20;;;5.50;87.70;;;;;;5073832;28;20166;-37
2022/12/05 04:30:25;;;;;;;24.65;14.95;;;5.50;87.70;;;;;;5073266;28;20021;-27
2022/12/05 04:33:09;;;;;;;22.67;14.07;;;5.50;87.70;;;;;;5073457;28;20054;-29
2022/12/05 04:35:40;;;;;;;21.45;13.23;;;5.50;87.70;;;;;;5073496;28;20384;-29
2022/12/05 04:38:14;;;;;;;24.05;15.05;;;5.50;87.70;;;;;;5073405;28;20510;-27
2022/12/05 04:40:48;;;;;;;24.92;14.95;;;5.50;87.70;;;;;;5073256;28;20012;-33
2022/12/05 04:43:15;;;;;;;23.52;14.70;;;5.50;87.70;;;;;;5073303;28;20043;-31
2022/12/05 04:45:43;;;;;;;22.85;14.63;;;5.50;87.70;;;;;;5073299;28;20091;-27
2022/12/05 04:48:14;;;;;;;24.65;15.15;;;5.50;87.80;;;;;;5073109;28;20027;-27
2022/12/05 04:50:44;;;;;;;27.60;15.88;;;5.40;87.80;;;;;;5073035;28;20024;-29
2022/12/05 04:53:11;;;;;;;25.10;16.00;;;5.40;87.80;;;;;;5073074;28;20025;-28
2022/12/05 04:55:45;;;;;;;26.00;15.85;;;5.40;87.90;;;;;;5073112;28;20047;-30
2022/12/05 04:58:20;;;;;;;23.33;14.10;;;5.30;88.00;;;;;;5073198;28;20024;-28
2022/12/05 05:00:51;;;;;;;26.63;15.10;;;5.30;88.10;;;;;;5073228;28;20020;-28
2022/12/05 05:03:39;;;;;;;22.55;14.43;;;5.30;88.10;;;;;;5072975;28;20380;-27
2022/12/05 05:06:06;;;;;;;23.10;14.30;;;5.30;88.10;;;;;;5072841;28;20027;-41
2022/12/05 05:08:31;;;;;;;21.75;13.65;;;5.30;88.20;;;;;;5072750;28;20028;-28
2022/12/05 05:11:11;;;;;;;21.65;13.13;;;5.40;88.20;;;;;;5072738;28;20031;-27
2022/12/05 05:13:37;;;;;;;21.20;13.55;;;5.40;88.30;;;;;;5072834;28;20341;-26
2022/12/05 05:16:03;;;;;;;21.00;13.30;;;5.40;88.20;;;;;;5072511;28;20052;-27
2022/12/05 05:18:29;;;;;;;22.38;12.18;;;5.50;88.20;;;;;;5072952;28;20427;-27
2022/12/05 05:20:55;;;;;;;22.20;12.90;;;5.50;88.20;;;;;;5072636;28;20021;-28
2022/12/05 05:23:20;;;;;;;20.25;12.65;;;5.50;88.20;;;;;;5072610;28;20516;-27
2022/12/05 05:25:52;;;;;;;23.00;13.85;;;5.50;88.20;;;;;;5072644;28;20062;-27
2022/12/05 05:28:17;;;;;;;19.75;12.00;;;5.60;88.20;;;;;;5071933;28;20415;-27
2022/12/05 05:30:43;;;;;;;20.75;12.45;;;5.60;88.20;;;;;;5072683;28;20027;-29
2022/12/05 05:33:08;;;;;;;19.98;13.25;;;5.60;88.10;;;;;;5072557;28;20029;-27
2022/12/05 05:35:38;;;;;;;22.00;13.30;;;5.60;88.00;;;;;;5072495;28;20362;-31
2022/12/05 05:38:03;;;;;;;21.50;12.85;;;5.60;88.00;;;;;;5072299;28;20101;-28
2022/12/05 05:40:29;;;;;;;21.48;13.63;;;5.60;88.00;;;;;;5072304;28;20021;-28
2022/12/05 05:42:54;;;;;;;20.73;12.23;;;5.60;88.00;;;;;;5072334;28;20013;-28
2022/12/05 05:45:20;;;;;;;18.23;12.07;;;5.70;88.10;;;;;;5072283;28;20020;-30
2022/12/05 05:47:47;;;;;;;20.48;12.27;;;5.70;88.10;;;;;;5072280;28;20066;-31
2022/12/05 05:50:13;;;;;;;19.63;12.38;;;5.70;88.10;;;;;;5072580;28;20119;-27
2022/12/05 05:52:39;;;;;;;20.10;12.73;;;5.70;88.00;;;;;;5072383;28;20456;-27
2022/12/05 05:55:05;;;;;;;22.55;13.32;;;5.70;88.00;;;;;;5072447;28;20376;-36
2022/12/05 05:57:31;;;;;;;20.63;13.02;;;5.70;88.00;;;;;;5072360;28;20428;-28
2022/12/05 05:59:57;;;;;;;18.98;12.57;;;5.70;88.00;;;;;;5072488;28;20020;-26
2022/12/05 06:02:22;;;;;;;16.98;11.23;;;5.70;88.00;;;;;;5072019;28;20035;-29
2022/12/05 06:04:48;;;;;;;19.33;12.13;;;5.70;88.00;;;;;;5072161;28;20025;-27
2022/12/05 06:07:14;;;;;;;20.02;12.00;;;5.70;88.00;;;;;;5072213;28;20017;-28
2022/12/05 06:09:39;;;;;;;19.92;13.43;;;5.70;88.00;;;;;;5072457;28;20070;-29
2022/12/05 06:12:05;;;;;;;18.23;11.85;;;5.70;88.00;;;;;;5053886;28;20024;-33
2022/12/05 06:14:31;;;;;;;17.92;12.27;;;5.80;88.00;;;;;;5072147;28;20017;-27
2022/12/05 06:16:56;;;;;;;18.90;12.20;;;5.80;88.00;;;;;;5072288;28;20393;-29
2022/12/05 06:19:22;;;;;;;21.23;12.70;;;5.80;88.00;;;;;;5072266;28;20024;-27
2022/12/05 06:21:49;;;;;;;19.98;13.00;;;5.70;88.00;;;;;;5071908;28;20021;-28
2022/12/05 06:24:15;;;;;;;19.38;12.32;;;5.80;88.10;;;;;;5071918;28;20027;-28
2022/12/05 06:26:41;;;;;;;19.38;12.50;;;5.80;88.00;;;;;;5071937;28;20027;-28
2022/12/05 06:29:06;;;;;;;19.33;12.15;;;5.80;88.00;;;;;;5071811;28;20340;-28
2022/12/05 06:31:32;;;;;;;18.75;12.32;;;5.80;88.10;;;;;;5071934;28;20035;-29
2022/12/05 06:34:02;;;;;;;19.38;12.60;;;5.80;88.10;;;;;;5072070;28;20027;-27
2022/12/05 06:36:28;;;;;;;19.80;12.20;;;5.90;88.10;;;;;;5072052;28;20463;-26
2022/12/05 06:38:58;;;;;;;18.77;12.18;;;5.80;88.00;;;;;;5073682;28;20043;-28
2022/12/05 06:41:25;;;;;;;17.98;11.80;;;5.90;88.00;;;;;;5057739;28;20507;-28
2022/12/05 06:43:57;;;;;;;18.98;12.38;;;5.90;88.00;;;;;;5075876;28;20025;-26
2022/12/05 06:46:24;;;;;;;17.52;12.35;;;5.90;88.00;;;;;;5075597;28;20027;-28
2022/12/05 06:48:52;;;;;;;19.63;12.57;;;5.90;88.00;;;;;;5075966;28;20021;-27
2022/12/05 06:51:18;;;;;;;18.30;11.45;;;5.80;88.00;;;;;;5075664;28;20032;-28
2022/12/05 06:53:44;;;;;;;17.90;11.65;;;5.80;88.10;;;;;;5075716;28;20464;-28
2022/12/05 06:56:13;;;;;;;17.45;11.73;;;5.90;88.10;;;;;;5075791;28;20056;-27
2022/12/05 06:58:40;;;;;;;20.67;12.93;;;5.80;88.00;;;;;;5075783;28;20215;-25
2022/12/05 07:03:55;;;;;;;21.25;14.10;;;5.80;88.00;;;;;;5075682;28;20077;-28
2022/12/05 07:06:20;;;;;;;20.42;13.20;;;5.80;88.10;;;;;;5075357;28;20571;-28
2022/12/05 07:08:46;;;;;;;21.15;13.52;;;5.80;88.20;;;;;;5075260;28;20052;-26
2022/12/05 07:11:11;;;;;;;19.75;12.15;;;5.80;88.20;;;;;;5075531;28;20024;-27
2022/12/05 07:13:37;;;;;;;18.60;12.27;;;5.80;88.30;;;;;;5075219;28;20154;-26
2022/12/05 07:16:05;;;;;;;18.52;11.77;;;5.80;88.40;;;;;;5075042;28;20053;-27
2022/12/05 07:18:31;;;;;;;16.80;10.48;;;5.80;88.40;;;;;;5075475;28;20032;-32
2022/12/05 07:21:03;;;;;;;15.50;10.05;;;5.80;88.40;;;;;;5075090;28;20465;-27
2022/12/05 07:23:29;;;;;;;16.58;11.23;;;5.90;88.40;;;;;;5074851;28;20471;-27
2022/12/05 07:25:56;;;;;;;14.48;10.45;;;6.00;88.30;;;;;;5074926;28;20100;-28
2022/12/05 07:28:22;;;;;;;16.35;10.93;;;6.00;88.30;;;;;;5075294;28;20441;-28
2022/12/05 07:30:47;;;;;;;15.52;10.90;;;6.00;88.20;;;;;;5075021;28;20021;-32
2022/12/05 07:33:13;;;;;;;15.57;10.77;;;6.00;88.20;;;;;;5074989;28;20021;-28
2022/12/05 07:35:39;;;;;;;16.63;11.07;;;6.00;88.20;;;;;;5074853;28;20075;-27
2022/12/05 07:38:05;;;;;;;15.43;10.00;;;6.10;88.30;;;;;;5075082;28;20017;-29
2022/12/05 07:40:31;;;;;;;18.10;11.05;;;6.10;88.30;;;;;;5075214;28;20318;-30
2022/12/05 07:42:56;;;;;;;14.07;10.05;;;6.10;88.20;;;;;;5074631;28;20032;-31
2022/12/05 07:45:22;;;;;;;17.17;11.32;;;6.10;88.20;;;;;;5074660;28;20066;-27
2022/12/05 07:47:48;;;;;;;17.95;11.13;;;6.10;88.20;;;;;;5074832;28;20457;-29
2022/12/05 07:50:14;;;;;;;13.82;9.75;;;6.10;88.10;;;;;;5073723;28;20504;-32
2022/12/05 07:52:39;;;;;;;15.68;10.82;;;6.10;88.10;;;;;;5074536;28;20482;-27
2022/12/05 07:55:06;;;;;;;21.50;10.82;;;6.20;88.20;;;;;;5074774;28;20056;-27
2022/12/05 07:57:31;;;;;;;16.23;11.00;;;6.20;88.20;;;;;;5074519;28;20024;-27
2022/12/05 07:59:57;;;;;;;15.75;10.65;;;6.10;88.10;;;;;;5074471;28;20031;-30
2022/12/05 08:02:22;;;;;;;15.52;10.13;;;6.10;88.10;;;;;;5074244;28;20431;-27
2022/12/05 08:04:48;;;;;;;14.00;10.15;;;6.10;88.10;;;;;;5074086;28;20016;-27
2022/12/05 08:07:13;;;;;;;16.25;10.95;;;6.10;88.20;;;;;;5074496;28;20025;-33
2022/12/05 08:09:39;;;;;;;16.20;11.02;;;6.10;88.20;;;;;;5074170;28;20448;-29
2022/12/05 08:12:05;;;;;;;16.10;10.20;;;6.10;88.20;;;;;;5074321;28;20024;-29
2022/12/05 08:14:31;;;;;;;16.27;10.68;;;6.10;88.20;;;;;;5074177;28;20079;-29
2022/12/05 08:16:56;;;;;;;15.13;10.43;;;6.20;88.30;;;;;;5074058;28;20048;-32
2022/12/05 08:19:22;;;;;;;15.90;11.35;;;6.20;88.30;;;;;;5074491;28;20025;-35
2022/12/05 08:21:47;;;;;;;20.20;10.63;;;6.20;88.20;;;;;;5073843;28;20047;-27
2022/12/05 08:24:13;;;;;;;15.70;10.77;;;6.20;88.20;;;;;;5073898;28;20104;-29
2022/12/05 08:26:39;;;;;;;15.13;10.43;;;6.20;88.20;;;;;;5073868;28;20027;-27
2022/12/05 08:29:08;;;;;;;14.85;10.43;;;6.20;88.20;;;;;;5074037;28;20028;-40
2022/12/05 08:31:38;;;;;;;15.85;10.27;;;6.30;88.20;;;;;;5073899;28;20025;-30
2022/12/05 08:34:04;;;;;;;15.45;10.27;;;6.30;88.20;;;;;;5074006;28;20371;-29
2022/12/05 08:36:31;;;;;;;17.38;11.20;;;6.30;88.10;;;;;;5074147;28;20115;-31
2022/12/05 08:39:02;;;;;;;14.90;10.45;;;6.30;88.20;;;;;;5074003;28;20025;-29
2022/12/05 08:41:28;;;;;;;18.42;11.10;;;6.30;88.20;;;;;;5073581;28;20152;-28
2022/12/05 08:44:05;;;;;;;24.65;11.68;;;6.30;88.20;;;;;;5073866;28;20353;-29
2022/12/05 08:46:34;;;;;;;17.17;10.98;;;6.30;88.10;;;;;;5073611;28;20107;-26
2022/12/05 08:48:59;;;;;;;17.65;11.35;;;6.30;88.10;;;;;;5073528;28;20031;-28
2022/12/05 08:51:25;;;;;;;17.48;11.30;;;6.30;88.10;;;;;;5073616;28;20107;-27
2022/12/05 08:53:50;;;;;;;18.73;11.75;;;6.40;88.20;;;;;;5073341;28;20409;-28
2022/12/05 08:56:16;;;;;;;18.55;12.15;;;6.40;88.10;;;;;;5073266;28;20024;-31
2022/12/05 08:58:41;;;;;;;18.35;12.00;;;6.30;88.00;;;;;;5073570;28;20028;-26
2022/12/05 09:01:16;;;;;;;18.67;12.00;;;6.40;88.20;;;;;;5072971;28;20433;-28
2022/12/05 09:03:42;;;;;;;19.02;12.13;;;6.40;88.20;;;;;;5073309;28;20035;-30
2022/12/05 09:06:19;;;;;;;17.27;11.55;;;6.40;88.20;;;;;;5073098;28;20012;-27
2022/12/05 09:08:46;;;;;;;18.17;11.65;;;6.40;88.20;;;;;;5073131;28;20012;-29
2022/12/05 09:11:13;;;;;;;19.63;12.15;;;6.50;88.20;;;;;;5072980;28;20024;-28
2022/12/05 09:13:39;;;;;;;19.45;12.07;;;6.50;88.10;;;;;;5073027;28;20368;-27
2022/12/05 09:16:29;;;;;;;20.77;12.50;;;6.50;88.00;;;;;;5072712;28;20045;-27
2022/12/05 09:18:55;;;;;;;20.15;12.55;;;6.50;87.90;;;;;;5072263;28;20040;-28
2022/12/05 09:21:23;;;;;;;20.75;13.27;;;6.50;88.00;;;;;;5072921;28;20104;-29
2022/12/05 09:23:49;;;;;;;20.77;12.98;;;6.50;88.60;;;;;;5072817;28;20052;-28
2022/12/05 09:26:18;;;;;;;21.15;12.85;;;6.40;88.10;;;;;;5072934;28;20512;-29
2022/12/05 09:28:44;;;;;;;19.83;12.52;;;6.50;88.20;;;;;;5072720;28;20133;-30
2022/12/05 09:31:15;;;;;;;22.88;13.15;;;6.50;88.20;;;;;;5072580;28;20024;-29
2022/12/05 09:33:41;;;;;;;22.83;12.43;;;6.50;88.20;;;;;;5072731;28;20032;-27
2022/12/05 09:36:19;;;;;;;18.17;11.85;;;6.50;88.10;;;;;;5072606;28;20035;-28
2022/12/05 09:38:45;;;;;;;21.65;12.35;;;6.60;88.10;;;;;;5072750;28;20099;-29
2022/12/05 09:44:39;;;;;;;20.70;12.35;;;6.50;88.00;;;;;;5072708;28;20039;-33
2022/12/05 09:47:10;;;;;;;23.50;12.48;;;6.60;88.10;;;;;;5072669;28;20051;-34
2022/12/05 09:49:49;;;;;;;21.63;12.27;;;6.50;88.00;;;;;;5072772;28;20020;-29
2022/12/05 09:52:30;;;;;;;22.60;12.75;;;6.60;88.10;;;;;;5072686;28;20112;-31
2022/12/05 09:55:04;;;;;;;22.00;12.40;;;6.60;88.10;;;;;;5072420;28;20100;-28
2022/12/05 09:57:35;;;;;;;20.33;12.50;;;6.60;88.10;;;;;;5072730;28;20051;-27
2022/12/05 10:00:03;;;;;;;18.90;11.98;;;6.70;88.00;;;;;;5072788;28;20028;-33
2022/12/05 10:02:51;;;;;;;20.73;12.35;;;6.70;88.00;;;;;;5072153;28;20047;-34
2022/12/05 10:05:21;;;;;;;19.13;12.25;;;6.70;88.00;;;;;;5072197;28;20020;-34
2022/12/05 10:07:52;;;;;;;19.75;12.30;;;6.70;88.00;;;;;;5072322;28;20027;-33
2022/12/05 10:10:48;;;;;;;22.40;12.00;;;6.80;88.10;;;;;;5072551;28;20027;-31
2022/12/05 10:13:39;;;;;;;19.50;11.65;;;6.80;88.00;;;;;;5054179;28;20084;-30
2022/12/05 10:16:12;;;;;;;19.00;11.95;;;6.80;88.00;;;;;;5072073;28;20040;-32
2022/12/05 10:18:49;;;;;;;18.50;11.65;;;6.80;87.90;;;;;;5072263;28;20021;-29
2022/12/05 10:21:25;;;;;;;20.70;11.68;;;6.80;87.90;;;;;;5072457;28;20025;-31
2022/12/05 10:24:15;;;;;;;18.40;11.63;;;6.90;88.00;;;;;;5072253;28;20021;-29
2022/12/05 10:26:54;;;;;;;19.50;11.55;;;6.90;88.00;;;;;;5072079;28;20021;-29
2022/12/05 10:29:31;;;;;;;19.27;12.27;;;6.90;87.90;;;;;;5072012;28;20066;-29
2022/12/05 10:32:12;;;;;;;20.48;12.20;;;6.90;87.90;;;;;;5071990;28;20028;-30
2022/12/05 10:34:39;;;;;;;18.98;11.50;;;6.90;87.90;;;;;;5071963;28;20077;-33
2022/12/05 10:37:08;;;;;;;20.13;12.93;;;6.90;87.90;;;;;;5071953;28;20079;-28
2022/12/05 10:39:34;;;;;;;18.95;11.85;;;6.90;87.90;;;;;;5071950;28;20059;-28
2022/12/05 10:42:00;;;;;;;19.58;12.15;;;7.00;87.90;;;;;;5071884;28;20066;-29
2022/12/05 10:44:25;;;;;;;19.70;11.70;;;7.00;87.90;;;;;;5071875;28;20094;-27
2022/12/05 10:46:51;;;;;;;19.40;12.30;;;7.00;87.90;;;;;;5071866;28;20022;-28
2022/12/05 10:49:20;;;;;;;18.30;11.85;;;7.00;87.90;;;;;;5071830;28;20017;-27
2022/12/05 10:51:47;;;;;;;17.38;11.20;;;7.00;87.90;;;;;;5071804;28;20025;-31
2022/12/05 10:54:20;;;;;;;17.65;11.40;;;7.00;87.80;;;;;;5071915;28;20028;-27
2022/12/05 10:56:47;;;;;;;;;;;7.00;87.80;;;;;;5072278;28;20039;-26
2022/12/05 10:59:21;;;;;;;17.60;10.43;;;7.10;87.80;;;;;;5071799;28;19912;-29
2022/12/05 11:01:52;;;;;;;20.60;11.77;;;7.00;87.80;;;;;;5071747;28;20028;-29
2022/12/05 11:04:41;;;;;;;21.38;12.20;;;7.00;87.80;;;;;;5072002;28;20407;-32
2022/12/05 11:07:21;;;;;;;18.98;11.07;;;7.10;87.90;;;;;;5071827;28;20040;-31
2022/12/05 11:09:47;;;;;;;17.95;10.23;;;7.10;87.90;;;;;;5071365;28;20027;-28
2022/12/05 11:12:13;;;;;;;17.05;10.82;;;7.10;87.90;;;;;;5071460;28;20454;-26
2022/12/05 11:14:38;;;;;;;18.73;11.32;;;7.10;87.90;;;;;;5071194;28;20040;-29
2022/12/05 11:17:05;;;;;;;18.33;11.50;;;7.10;87.90;;;;;;5071184;28;20040;-29
2022/12/05 11:19:36;;;;;;;17.60;11.32;;;7.10;87.90;;;;;;5071698;28;20036;-28
2022/12/05 11:22:03;;;;;;;18.13;11.27;;;7.10;87.90;;;;;;5071499;28;20609;-28
2022/12/05 11:24:37;;;;;;;19.33;11.90;;;7.20;87.90;;;;;;5071826;28;20471;-29
2022/12/05 11:27:14;;;;;;;;;;;7.20;87.90;;;;;;5057163;28;20039;-28
2022/12/05 11:29:41;;;;;;;18.73;10.32;;;7.20;87.90;;;;;;5075030;28;19904;-28
2022/12/05 11:32:18;;;;;;;15.70;10.82;;;7.20;87.80;;;;;;5074939;28;20479;-29
2022/12/05 11:34:53;;;;;;;16.63;10.25;;;7.20;87.90;;;;;;5075182;28;20095;-30
2022/12/05 11:37:24;;;;;;;14.82;10.00;;;7.30;87.90;;;;;;5074782;28;20036;-32
2022/12/05 11:39:50;;;;;;;16.75;10.40;;;7.30;87.90;;;;;;5074828;28;20476;-29
2022/12/05 11:42:32;;;;;;;17.27;11.07;;;7.30;87.90;;;;;;5074852;28;20031;-32
2022/12/05 11:45:24;;;;;;;15.65;10.52;;;7.30;87.90;;;;;;5074831;28;20388;-30
2022/12/05 11:48:22;;;;;;;15.48;10.18;;;7.30;87.90;;;;;;5074685;28;20051;-27
2022/12/05 11:50:59;;;;;;;15.80;10.18;;;7.30;87.90;;;;;;5027709;28;20028;-30
2022/12/05 11:53:52;;;;;;;14.75;10.07;;;7.30;87.90;;;;;;5074882;28;20062;-34
2022/12/05 11:56:37;;;;;;;13.73;9.30;;;7.30;87.90;;;;;;5074682;28;20505;-29
2022/12/05 11:59:21;;;;;;;14.73;9.32;;;7.30;87.90;;;;;;5074902;28;20456;-29
2022/12/05 12:02:29;;;;;;;13.18;8.65;;;7.30;87.90;;;;;;5074329;28;20037;-29
2022/12/05 12:05:18;;;;;;;14.32;9.27;;;7.30;87.90;;;;;;5074780;28;20530;-31
2022/12/05 12:08:02;;;;;;;13.75;9.00;;;7.30;87.90;;;;;;5074251;28;20060;-30
2022/12/05 12:10:45;;;;;;;16.58;10.85;;;7.30;87.90;;;;;;5074644;28;20043;-27
2022/12/05 12:13:54;;;;;;;16.27;10.88;;;7.30;87.80;;;;;;5056079;28;20475;-28
2022/12/05 12:16:31;;;;;;;15.50;9.93;;;7.30;87.90;;;;;;5073945;28;20074;-31
2022/12/05 12:19:16;;;;;;;14.65;10.18;;;7.30;87.90;;;;;;5074382;28;20369;-28
2022/12/05 12:22:17;;;;;;;14.05;9.57;;;7.20;87.90;;;;;;5074273;28;20063;-32
2022/12/05 12:24:54;;;;;;;13.93;9.35;;;7.30;88.00;;;;;;5074447;28;20731;-28
2022/12/05 12:27:45;;;;;;;19.88;11.60;;;7.20;87.90;;;;;;5074051;28;20052;-30
2022/12/05 12:30:37;;;;;;;16.10;11.05;;;7.30;88.00;;;;;;5074001;28;20023;-29
2022/12/05 12:33:08;;;;;;;13.85;10.77;;;7.20;88.00;;;;;;5069163;28;20477;-27
2022/12/05 12:36:00;;;;;;;13.90;10.18;;;7.30;88.10;;;;;;5073905;28;20469;-29
2022/12/05 12:38:46;;;;;;;12.93;9.32;;;7.20;88.00;;;;;;5073752;28;20119;-27
2022/12/05 12:41:30;;;;;;;14.55;10.48;;;7.30;88.10;;;;;;5032256;28;20044;-26
2022/12/05 12:44:30;;;;;;;13.20;9.40;;;7.20;88.10;;;;;;5073827;28;20069;-28
2022/12/05 12:47:09;;;;;;;14.55;10.75;;;7.30;88.20;;;;;;5073595;28;20093;-30
2022/12/05 12:50:00;;;;;;;12.40;9.40;;;7.30;88.10;;;;;;5055701;28;20013;-29
2022/12/05 12:52:38;;;;;;;12.63;9.05;;;7.30;88.20;;;;;;5073577;28;20021;-27
2022/12/05 12:55:28;;;;;;;12.57;8.57;;;7.20;88.10;;;;;;5073518;28;20460;-28
2022/12/05 12:58:13;;;;;;;11.38;8.20;;;7.20;88.20;;;;;;5055645;28;20494;-28
2022/12/05 13:01:04;;;;;;;11.10;8.20;;;7.10;88.20;;;;;;5073621;28;20520;-43
2022/12/05 13:03:37;;;;;;;10.15;7.68;;;7.20;88.20;;;;;;5073051;28;20055;-37
2022/12/05 13:06:20;;;;;;;8.57;6.90;;;7.10;88.20;;;;;;5073570;28;20031;-32
2022/12/05 13:08:54;;;;;;;8.38;6.68;;;7.10;88.20;;;;;;5073440;28;20027;-31
2022/12/05 13:11:21;;;;;;;10.40;7.15;;;7.10;88.20;;;;;;5073231;28;20517;-37
2022/12/05 13:13:58;;;;;;;9.77;7.20;;;7.10;88.20;;;;;;5073031;28;20103;-43
2022/12/05 13:16:37;;;;;;;8.43;6.53;;;7.10;88.30;;;;;;5072760;28;20053;-43